Time;durP1;ratioP1;P1;durP2;ratioP2;P2;SDS_P1;SDS_P2;PMS_P1;PMS_P2;Temp;Humidity;BMP_temperature;BMP_pressure;BME280_temperature;BME280_humidity;BME280_pressure;Samples;Min_cycle;Max_cycle;Signal;HPM_P1;HPM_P2
2022/08/29 00:00:21;;;;;;;59.28;49.85;;;24.40;49.20;;;;;;4929211;28;90260;-48
2022/08/29 00:02:49;;;;;;;60.28;50.05;;;24.40;49.20;;;;;;4921945;28;90951;-49
2022/08/29 00:05:17;;;;;;;60.13;50.13;;;24.40;49.20;;;;;;4933300;28;89809;-52
2022/08/29 00:07:43;;;;;;;59.25;49.70;;;24.40;49.20;;;;;;4938318;28;90038;-52
2022/08/29 00:10:09;;;;;;;59.85;49.90;;;24.40;49.30;;;;;;4931954;28;90570;-52
2022/08/29 00:12:35;;;;;;;59.97;50.03;;;24.40;49.30;;;;;;4929015;28;91276;-55
2022/08/29 00:15:01;;;;;;;60.25;50.05;;;24.40;49.30;;;;;;4939064;28;90022;-52
2022/08/29 00:17:26;;;;;;;61.13;50.22;;;24.40;49.40;;;;;;4922495;28;90301;-55
2022/08/29 00:19:52;;;;;;;60.13;50.13;;;24.40;49.40;;;;;;4932386;28;89943;-52
2022/08/29 00:22:17;;;;;;;59.95;49.72;;;24.40;49.40;;;;;;4927576;28;91319;-53
2022/08/29 00:24:43;;;;;;;59.97;50.00;;;24.40;49.50;;;;;;4935803;28;90014;-52
2022/08/29 00:27:09;;;;;;;59.58;49.95;;;24.40;49.50;;;;;;4936647;28;89892;-53
2022/08/29 00:29:35;;;;;;;59.95;49.92;;;24.30;49.50;;;;;;4934239;28;90817;-53
2022/08/29 00:32:00;;;;;;;60.25;49.75;;;24.30;49.40;;;;;;4926170;28;90287;-53
2022/08/29 00:34:26;;;;;;;59.35;49.85;;;24.40;49.50;;;;;;4927461;28;90514;-54
2022/08/29 00:36:53;;;;;;;60.95;50.03;;;24.30;49.40;;;;;;4926193;28;94192;-51
2022/08/29 00:39:19;;;;;;;60.03;50.28;;;24.30;49.40;;;;;;4921708;28;91602;-50
2022/08/29 00:41:45;;;;;;;59.88;50.03;;;24.30;49.50;;;;;;4928207;28;91713;-51
2022/08/29 00:44:10;;;;;;;59.17;49.67;;;24.30;49.50;;;;;;4937620;28;90520;-52
2022/08/29 00:46:45;;;;;;;61.08;49.72;;;24.30;49.60;;;;;;4928441;28;91001;-53
2022/08/29 00:49:28;;;;;;;59.47;49.95;;;24.30;49.50;;;;;;4928180;28;90000;-50
2022/08/29 00:51:55;;;;;;;60.25;50.05;;;24.30;49.60;;;;;;4935144;28;90154;-51
2022/08/29 00:54:22;;;;;;;59.28;50.03;;;24.30;49.60;;;;;;4924094;28;96967;-53
2022/08/29 00:56:48;;;;;;;59.38;49.85;;;24.30;49.60;;;;;;4936716;28;89465;-55
2022/08/29 00:59:22;;;;;;;59.55;49.90;;;24.30;49.60;;;;;;4931814;28;94865;-55
2022/08/29 01:01:48;;;;;;;59.15;49.95;;;24.30;49.60;;;;;;4931893;28;89987;-53
2022/08/29 01:04:15;;;;;;;59.33;49.78;;;24.30;49.70;;;;;;4927443;28;88916;-54
2022/08/29 01:06:41;;;;;;;59.58;49.83;;;24.30;49.80;;;;;;4923819;28;90287;-53
2022/08/29 01:09:08;;;;;;;59.08;49.80;;;24.30;49.80;;;;;;4928655;28;90943;-52
2022/08/29 01:14:21;;;;;;;60.58;49.92;;;24.20;49.80;;;;;;4925936;28;94946;-51
2022/08/29 01:16:49;;;;;;;59.58;49.83;;;24.30;49.90;;;;;;4936568;28;93902;-54
2022/08/29 01:19:33;;;;;;;59.78;50.03;;;24.20;49.80;;;;;;4935773;28;89808;-52
2022/08/29 01:22:09;;;;;;;59.42;49.85;;;24.20;49.80;;;;;;4927959;28;89961;-52
2022/08/29 01:24:49;;;;;;;59.70;49.95;;;24.20;49.80;;;;;;4930131;28;91259;-54
2022/08/29 01:27:18;;;;;;;58.83;49.60;;;24.20;49.90;;;;;;4931532;28;90352;-54
2022/08/29 01:29:44;;;;;;;59.47;49.72;;;24.20;49.90;;;;;;4934607;28;91533;-51
2022/08/29 01:32:11;;;;;;;60.22;49.95;;;24.20;50.00;;;;;;4929187;28;92837;-54
2022/08/29 01:34:37;;;;;;;58.95;49.75;;;24.20;50.00;;;;;;4930356;28;92080;-50
2022/08/29 01:37:07;;;;;;;59.45;49.83;;;24.20;50.00;;;;;;4928966;28;90830;-54
2022/08/29 01:39:37;;;;;;;59.58;49.85;;;24.20;50.10;;;;;;4929468;28;90890;-53
2022/08/29 01:42:13;;;;;;;58.65;49.42;;;24.20;50.20;;;;;;4932281;28;91070;-54
2022/08/29 01:44:39;;;;;;;59.60;49.85;;;24.20;50.10;;;;;;4933594;28;89905;-55
2022/08/29 01:47:07;;;;;;;58.60;49.60;;;24.20;50.20;;;;;;4928810;28;90271;-53
2022/08/29 01:49:35;;;;;;;59.60;49.67;;;24.20;50.20;;;;;;4933863;28;90114;-52
2022/08/29 01:52:02;;;;;;;59.35;49.65;;;24.10;50.20;;;;;;4926783;28;90243;-53
2022/08/29 01:54:29;;;;;;;59.75;49.78;;;24.20;50.30;;;;;;4932517;28;89436;-53
2022/08/29 01:56:54;;;;;;;60.08;50.03;;;24.20;50.30;;;;;;4924428;28;89725;-52
2022/08/29 01:59:24;;;;;;;59.45;50.03;;;24.20;50.30;;;;;;4928439;28;89796;-54
2022/08/29 02:01:59;;;;;;;59.38;50.20;;;24.20;50.30;;;;;;4929735;28;92237;-51
2022/08/29 02:04:26;;;;;;;59.38;49.65;;;24.20;50.40;;;;;;4929456;28;91395;-54
2022/08/29 02:06:51;;;;;;;59.45;49.72;;;24.20;50.30;;;;;;4926508;28;89779;-52
2022/08/29 02:09:17;;;;;;;59.28;49.75;;;24.20;50.50;;;;;;4924740;28;90216;-52
2022/08/29 02:11:45;;;;;;;61.17;50.10;;;24.20;50.40;;;;;;4927170;28;90487;-52
2022/08/29 02:14:11;;;;;;;59.33;49.88;;;24.20;50.50;;;;;;4921225;28;90945;-54
2022/08/29 02:16:37;;;;;;;59.13;49.95;;;24.10;50.50;;;;;;4944519;28;91633;-50
2022/08/29 02:19:02;;;;;;;60.25;49.90;;;24.10;50.50;;;;;;4924100;28;90030;-53
2022/08/29 02:21:30;;;;;;;59.47;49.92;;;24.20;50.60;;;;;;4929581;28;91675;-51
2022/08/29 02:23:58;;;;;;;59.15;49.85;;;24.10;50.50;;;;;;4920768;28;90566;-53
2022/08/29 02:26:24;;;;;;;59.05;49.85;;;24.10;50.50;;;;;;4926201;28;92268;-54
2022/08/29 02:28:50;;;;;;;60.03;50.05;;;24.20;50.50;;;;;;4937164;28;90738;-55
2022/08/29 02:31:17;;;;;;;59.50;49.83;;;24.10;50.60;;;;;;4924074;28;93813;-53
2022/08/29 02:33:43;;;;;;;59.40;49.65;;;24.10;50.60;;;;;;4924061;28;91118;-50
2022/08/29 02:36:09;;;;;;;60.00;49.80;;;24.10;51.20;;;;;;4926357;28;89586;-55
2022/08/29 02:38:35;;;;;;;58.80;49.63;;;24.10;50.60;;;;;;4928277;28;90529;-55
2022/08/29 02:41:01;;;;;;;60.40;49.75;;;24.10;50.60;;;;;;4923206;28;94627;-55
2022/08/29 02:43:27;;;;;;;60.15;49.90;;;24.10;50.70;;;;;;4928489;28;89918;-54
2022/08/29 02:45:53;;;;;;;58.92;49.80;;;24.10;50.80;;;;;;4926599;28;91271;-52
2022/08/29 02:48:20;;;;;;;59.30;49.92;;;24.10;50.80;;;;;;4927262;28;91315;-55
2022/08/29 02:50:49;;;;;;;58.67;49.63;;;24.10;50.80;;;;;;4918468;28;92501;-53
2022/08/29 02:53:19;;;;;;;59.72;49.75;;;24.10;50.90;;;;;;4927710;28;90943;-53
2022/08/29 02:55:47;;;;;;;59.55;50.15;;;24.10;51.00;;;;;;4922216;28;89976;-51
2022/08/29 02:58:13;;;;;;;59.80;49.92;;;24.00;50.90;;;;;;4936982;28;90533;-53
2022/08/29 03:00:40;;;;;;;59.13;49.95;;;24.00;50.90;;;;;;4935273;28;90290;-52
2022/08/29 03:03:07;;;;;;;59.22;49.90;;;24.00;50.90;;;;;;4918862;28;92022;-50
2022/08/29 03:05:35;;;;;;;60.40;49.83;;;24.00;51.00;;;;;;4927687;28;91403;-52
2022/08/29 03:08:03;;;;;;;58.97;49.67;;;24.00;50.90;;;;;;4928130;28;89223;-51
2022/08/29 03:10:29;;;;;;;59.03;49.72;;;24.00;51.00;;;;;;4924117;28;92932;-55
2022/08/29 03:12:55;;;;;;;59.55;49.75;;;24.00;51.00;;;;;;4928219;28;89455;-53
2022/08/29 03:15:21;;;;;;;61.15;49.95;;;24.00;51.10;;;;;;4927716;28;91150;-55
2022/08/29 03:17:47;;;;;;;59.42;49.70;;;24.00;51.10;;;;;;4928024;28;90975;-55
2022/08/29 03:20:15;;;;;;;60.38;49.88;;;24.00;51.10;;;;;;4923548;28;90314;-51
2022/08/29 03:22:41;;;;;;;59.75;49.88;;;24.00;51.10;;;;;;4924893;28;89834;-53
2022/08/29 03:25:07;;;;;;;58.83;49.55;;;24.00;51.10;;;;;;4930590;28;90574;-55
2022/08/29 03:27:33;;;;;;;59.53;49.72;;;24.00;51.20;;;;;;4928715;28;89908;-54
2022/08/29 03:29:59;;;;;;;60.50;49.90;;;24.00;51.20;;;;;;4926418;28;90910;-55
2022/08/29 03:32:26;;;;;;;59.30;50.03;;;23.90;51.10;;;;;;4927836;28;89048;-55
2022/08/29 03:34:53;;;;;;;59.42;49.80;;;24.00;51.20;;;;;;4927610;28;90665;-52
2022/08/29 03:37:19;;;;;;;58.95;49.65;;;24.00;51.20;;;;;;4928164;28;94165;-54
2022/08/29 03:39:45;;;;;;;59.22;49.88;;;23.90;51.20;;;;;;4938792;28;91298;-52
2022/08/29 03:42:11;;;;;;;60.38;50.03;;;23.90;51.30;;;;;;4936164;28;90801;-54
2022/08/29 03:44:38;;;;;;;59.38;49.75;;;23.90;51.30;;;;;;4930258;28;91481;-52
2022/08/29 03:47:05;;;;;;;60.63;49.78;;;23.90;51.30;;;;;;4930135;28;89926;-53
2022/08/29 03:49:30;;;;;;;59.28;49.95;;;23.90;51.40;;;;;;4928175;28;90116;-53
2022/08/29 03:51:56;;;;;;;59.80;49.88;;;23.90;51.40;;;;;;4945621;28;92009;-49
2022/08/29 03:54:22;;;;;;;58.75;49.53;;;23.90;51.30;;;;;;4934062;28;89793;-54
2022/08/29 03:56:48;;;;;;;60.28;49.95;;;23.90;51.40;;;;;;4926187;28;89831;-52
2022/08/29 03:59:15;;;;;;;59.22;49.70;;;23.90;51.40;;;;;;4938696;28;90705;-53
2022/08/29 04:01:41;;;;;;;59.22;50.03;;;23.90;51.40;;;;;;4931163;28;94512;-48
2022/08/29 04:04:07;;;;;;;58.92;49.58;;;23.90;51.40;;;;;;4931362;28;90902;-54
2022/08/29 04:06:33;;;;;;;59.90;49.83;;;23.90;51.40;;;;;;4934101;28;90269;-51
2022/08/29 04:08:59;;;;;;;59.65;49.70;;;23.90;52.10;;;;;;4943502;28;90518;-52
2022/08/29 04:11:27;;;;;;;59.33;49.70;;;23.90;51.50;;;;;;4929505;28;90274;-52
2022/08/29 04:13:53;;;;;;;59.95;49.72;;;23.90;51.50;;;;;;4927999;28;90802;-54
2022/08/29 04:16:24;;;;;;;59.33;49.88;;;23.90;51.50;;;;;;4923134;28;89990;-55
2022/08/29 04:18:49;;;;;;;60.50;49.72;;;23.80;51.60;;;;;;4932334;28;94325;-55
2022/08/29 04:21:16;;;;;;;59.45;49.67;;;23.80;51.60;;;;;;4929106;28;89790;-53
2022/08/29 04:23:42;;;;;;;68.32;50.05;;;23.80;51.60;;;;;;4930632;28;90499;-55
2022/08/29 04:26:16;;;;;;;59.65;49.95;;;23.80;51.70;;;;;;4930203;28;89722;-52
2022/08/29 04:28:42;;;;;;;59.05;49.67;;;23.80;51.70;;;;;;4934195;28;96066;-51
2022/08/29 04:31:18;;;;;;;58.97;49.75;;;23.80;51.60;;;;;;4927130;28;90049;-55
2022/08/29 04:33:45;;;;;;;58.75;49.63;;;23.80;51.60;;;;;;4928900;28;90844;-52
2022/08/29 04:36:11;;;;;;;58.75;49.63;;;23.80;51.70;;;;;;4934958;28;92147;-52
2022/08/29 04:38:37;;;;;;;59.08;49.53;;;23.80;51.70;;;;;;4931834;28;89915;-54
2022/08/29 04:41:13;;;;;;;59.05;49.90;;;23.80;51.70;;;;;;4947724;28;89944;-53
2022/08/29 04:43:40;;;;;;;58.47;49.60;;;23.80;51.70;;;;;;4933059;28;91454;-56
2022/08/29 04:46:06;;;;;;;58.60;49.65;;;23.70;51.80;;;;;;4932771;28;89322;-54
2022/08/29 04:48:31;;;;;;;58.83;49.58;;;23.80;51.80;;;;;;4935288;28;90185;-53
2022/08/29 04:51:00;;;;;;;59.10;49.72;;;23.80;51.80;;;;;;4926846;28;90560;-50
2022/08/29 04:53:27;;;;;;;59.70;49.60;;;23.80;51.80;;;;;;4929411;28;91061;-53
2022/08/29 04:55:58;;;;;;;58.67;49.75;;;23.80;51.90;;;;;;4930070;28;89538;-55
2022/08/29 04:58:24;;;;;;;58.90;49.55;;;23.80;51.90;;;;;;4931643;28;90454;-53
2022/08/29 05:00:51;;;;;;;58.70;49.53;;;23.70;51.90;;;;;;4936157;28;89797;-55
2022/08/29 05:03:18;;;;;;;60.40;49.75;;;23.80;52.00;;;;;;4921673;28;90021;-54
2022/08/29 05:05:44;;;;;;;58.30;49.63;;;23.70;51.90;;;;;;4934708;28;90196;-54
2022/08/29 05:08:10;;;;;;;59.40;49.55;;;23.70;51.90;;;;;;4934188;28;90031;-53
2022/08/29 05:10:36;;;;;;;59.00;49.50;;;23.70;51.90;;;;;;4923073;28;90089;-50
2022/08/29 05:13:02;;;;;;;59.45;49.83;;;23.70;52.00;;;;;;4929115;28;89906;-55
2022/08/29 05:15:28;;;;;;;58.97;49.83;;;23.70;51.90;;;;;;4921693;28;94342;-52
2022/08/29 05:17:54;;;;;;;59.60;49.95;;;23.70;52.00;;;;;;4932651;28;90762;-53
2022/08/29 05:20:20;;;;;;;59.60;50.00;;;23.70;52.00;;;;;;4930423;28;90398;-52
2022/08/29 05:22:46;;;;;;;59.22;49.70;;;23.70;51.90;;;;;;4924645;28;90075;-50
2022/08/29 05:25:12;;;;;;;60.22;49.90;;;23.70;52.00;;;;;;4929010;28;90035;-55
2022/08/29 05:27:40;;;;;;;58.92;49.83;;;23.70;52.00;;;;;;4937664;28;92468;-54
2022/08/29 05:30:06;;;;;;;61.20;49.72;;;23.70;52.10;;;;;;4930626;28;89944;-54
2022/08/29 05:32:32;;;;;;;59.60;49.72;;;23.70;52.10;;;;;;4919264;28;89999;-53
2022/08/29 05:34:58;;;;;;;58.72;49.63;;;23.70;52.00;;;;;;4936599;28;90775;-53
2022/08/29 05:37:25;;;;;;;58.45;49.53;;;23.70;51.90;;;;;;4929862;28;89942;-51
2022/08/29 05:39:51;;;;;;;58.70;50.05;;;23.80;52.00;;;;;;4929487;28;93907;-55
2022/08/29 05:42:19;;;;;;;58.47;49.67;;;23.70;52.00;;;;;;4930476;28;90517;-54
2022/08/29 05:44:45;;;;;;;58.50;49.75;;;23.80;52.00;;;;;;4939055;28;89815;-52
2022/08/29 05:47:12;;;;;;;59.15;49.67;;;23.70;52.10;;;;;;4930438;28;93085;-49
2022/08/29 05:49:40;;;;;;;58.70;49.97;;;23.70;52.00;;;;;;4924140;28;94469;-53
2022/08/29 05:52:06;;;;;;;59.10;49.55;;;23.70;52.00;;;;;;4937758;28;89795;-49
2022/08/29 05:54:35;;;;;;;59.80;49.75;;;23.80;52.00;;;;;;4927677;28;89848;-54
2022/08/29 05:57:01;;;;;;;58.97;49.65;;;23.70;51.90;;;;;;4929382;28;91560;-54
2022/08/29 05:59:26;;;;;;;58.45;49.58;;;23.80;52.00;;;;;;4932276;28;89978;-52
2022/08/29 06:01:52;;;;;;;58.67;49.78;;;23.80;52.00;;;;;;4942365;28;89864;-54
2022/08/29 06:04:18;;;;;;;59.10;49.63;;;23.70;52.00;;;;;;4929641;28;94453;-52
2022/08/29 06:06:44;;;;;;;58.63;49.65;;;23.70;52.10;;;;;;4918001;28;91041;-55
2022/08/29 06:09:13;;;;;;;58.78;49.92;;;23.70;52.10;;;;;;4929555;28;92601;-54
2022/08/29 06:11:39;;;;;;;58.67;49.83;;;23.70;52.00;;;;;;4929240;28;91537;-55
2022/08/29 06:14:05;;;;;;;59.45;49.47;;;23.70;52.00;;;;;;4926798;28;89697;-52
2022/08/29 06:16:31;;;;;;;58.63;49.47;;;23.70;51.90;;;;;;4919743;28;93604;-55
2022/08/29 06:18:58;;;;;;;59.50;49.92;;;23.70;52.00;;;;;;4918545;28;90961;-54
2022/08/29 06:21:24;;;;;;;58.90;49.75;;;23.70;52.40;;;;;;4926897;28;89603;-51
2022/08/29 06:23:50;;;;;;;58.92;49.80;;;23.70;52.00;;;;;;4929393;28;88727;-53
2022/08/29 06:26:18;;;;;;;58.75;49.92;;;23.70;52.10;;;;;;4920569;28;91350;-54
2022/08/29 06:28:45;;;;;;;58.80;49.78;;;23.70;52.00;;;;;;4928110;28;89659;-52
2022/08/29 06:31:19;;;;;;;59.58;49.90;;;23.70;52.00;;;;;;4926847;28;92188;-55
2022/08/29 06:33:45;;;;;;;60.53;49.75;;;23.70;52.00;;;;;;4928601;28;90134;-53
2022/08/29 06:36:11;;;;;;;59.30;49.65;;;23.80;52.10;;;;;;4925292;28;90405;-50
2022/08/29 06:38:38;;;;;;;60.25;49.75;;;23.70;52.00;;;;;;4923823;28;89525;-50
2022/08/29 06:41:12;;;;;;;58.58;49.65;;;23.70;52.10;;;;;;4922631;28;92985;-51
2022/08/29 06:43:39;;;;;;;58.63;49.65;;;23.80;52.10;;;;;;4925829;28;90879;-53
2022/08/29 06:46:05;;;;;;;59.13;49.85;;;23.80;52.00;;;;;;4925739;28;90922;-51
2022/08/29 06:48:31;;;;;;;59.25;49.60;;;23.80;52.10;;;;;;4933796;28;89384;-52
2022/08/29 06:51:01;;;;;;;59.40;49.95;;;23.70;52.10;;;;;;4923007;28;89899;-53
2022/08/29 06:53:27;;;;;;;59.22;49.95;;;23.70;52.10;;;;;;4930168;28;90619;-50
2022/08/29 06:55:53;;;;;;;59.85;49.75;;;23.70;52.20;;;;;;4929583;28;93591;-55
2022/08/29 06:58:19;;;;;;;59.80;49.85;;;23.80;52.20;;;;;;4932586;28;91959;-51
2022/08/29 07:00:45;;;;;;;60.10;49.75;;;23.70;52.10;;;;;;4930285;28;89660;-53
2022/08/29 07:03:11;;;;;;;59.15;49.95;;;23.70;52.10;;;;;;4923251;28;94627;-51
2022/08/29 07:05:36;;;;;;;58.65;49.70;;;23.80;52.10;;;;;;4928003;28;91013;-53
2022/08/29 07:08:03;;;;;;;59.47;49.83;;;23.80;52.00;;;;;;4922863;28;93179;-52
2022/08/29 07:10:28;;;;;;;58.88;49.65;;;23.80;52.00;;;;;;4928514;28;93368;-53
2022/08/29 07:12:54;;;;;;;59.60;49.97;;;23.80;52.00;;;;;;4929646;28;89156;-53
2022/08/29 07:15:21;;;;;;;59.42;50.05;;;23.80;51.90;;;;;;4933220;28;89583;-51
2022/08/29 07:17:48;;;;;;;59.30;50.00;;;23.80;52.40;;;;;;4930997;28;90399;-55
2022/08/29 07:20:15;;;;;;;61.10;50.00;;;23.90;51.80;;;;;;4927787;28;90722;-54
2022/08/29 07:22:41;;;;;;;59.00;49.85;;;23.90;51.90;;;;;;4927216;28;90514;-54
2022/08/29 07:25:09;;;;;;;59.22;49.95;;;23.90;51.90;;;;;;4934003;28;89894;-55
2022/08/29 07:27:35;;;;;;;59.38;49.67;;;23.80;51.80;;;;;;4938417;28;90294;-51
2022/08/29 07:30:01;;;;;;;61.88;50.05;;;23.90;51.80;;;;;;4926980;28;90189;-54
2022/08/29 07:32:28;;;;;;;58.95;49.60;;;23.90;51.80;;;;;;4919108;28;90927;-55
2022/08/29 07:34:53;;;;;;;59.22;49.88;;;23.90;51.70;;;;;;4934031;28;93582;-54
2022/08/29 07:37:19;;;;;;;61.40;49.95;;;23.90;51.70;;;;;;4935011;28;88954;-53
2022/08/29 07:39:45;;;;;;;60.38;49.92;;;24.00;51.70;;;;;;4923067;28;90652;-54
2022/08/29 07:42:11;;;;;;;59.50;49.63;;;24.00;51.60;;;;;;4922401;28;89975;-55
2022/08/29 07:44:36;;;;;;;59.15;49.90;;;24.00;51.50;;;;;;4930609;28;92283;-51
2022/08/29 07:47:02;;;;;;;60.45;49.80;;;24.10;51.30;;;;;;4926741;28;91061;-55
2022/08/29 07:49:31;;;;;;;60.25;49.92;;;24.10;51.20;;;;;;4924508;28;89664;-51
2022/08/29 07:51:57;;;;;;;59.15;49.75;;;24.20;51.00;;;;;;4927369;28;91233;-54
2022/08/29 07:54:22;;;;;;;64.65;50.13;;;24.20;51.00;;;;;;4931823;28;90247;-54
2022/08/29 07:56:50;;;;;;;63.78;50.08;;;24.30;50.90;;;;;;4926860;28;89898;-55
2022/08/29 07:59:18;;;;;;;64.05;50.05;;;24.30;51.00;;;;;;4924865;28;92282;-51
2022/08/29 08:01:44;;;;;;;62.90;50.08;;;24.20;51.60;;;;;;4925506;28;90907;-53
2022/08/29 08:04:11;;;;;;;61.33;50.47;;;24.20;51.30;;;;;;4919364;28;93602;-49
2022/08/29 08:06:39;;;;;;;61.90;50.00;;;24.20;52.00;;;;;;4920938;28;91333;-53
2022/08/29 08:09:06;;;;;;;62.58;50.35;;;24.20;51.90;;;;;;4923791;28;91311;-53
2022/08/29 08:11:32;;;;;;;61.17;50.58;;;24.20;51.70;;;;;;4934082;28;91145;-55
2022/08/29 08:13:57;;;;;;;61.67;50.08;;;24.20;51.60;;;;;;4912898;28;89976;-52
2022/08/29 08:16:25;;;;;;;62.92;50.35;;;24.20;51.50;;;;;;4915546;28;92473;-54
2022/08/29 08:18:52;;;;;;;60.92;50.13;;;24.20;51.30;;;;;;4920793;28;90077;-55
2022/08/29 08:21:18;;;;;;;62.13;50.25;;;24.30;51.20;;;;;;4920057;28;91581;-52
2022/08/29 08:23:44;;;;;;;62.50;50.38;;;24.30;51.70;;;;;;4918641;28;96488;-53
2022/08/29 08:26:11;;;;;;;64.80;50.30;;;24.30;50.30;;;;;;4925797;28;89489;-58
2022/08/29 08:28:39;;;;;;;64.35;50.55;;;24.20;49.00;;;;;;4915690;28;90483;-52
2022/08/29 08:31:08;;;;;;;61.33;50.65;;;24.10;48.30;;;;;;4928175;28;90016;-50
2022/08/29 08:33:37;;;;;;;61.78;50.45;;;24.00;48.40;;;;;;4913633;28;91937;-49
2022/08/29 08:36:24;;;;;;;62.60;50.13;;;23.90;48.00;;;;;;4927290;28;95357;-53
2022/08/29 08:38:52;;;;;;;63.70;50.55;;;23.80;48.20;;;;;;4916242;28;89994;-52
2022/08/29 08:41:26;;;;;;;63.53;50.53;;;23.80;47.70;;;;;;4940289;28;91402;-49
2022/08/29 08:43:56;;;;;;;62.95;50.35;;;23.70;48.10;;;;;;4929041;28;89844;-51
2022/08/29 08:46:36;;;;;;;61.55;50.53;;;23.70;48.10;;;;;;4936564;28;91252;-51
2022/08/29 08:49:22;;;;;;;62.67;50.58;;;23.70;48.40;;;;;;4922864;28;89871;-52
2022/08/29 08:51:55;;;;;;;63.05;50.60;;;23.60;48.40;;;;;;4934078;28;89279;-54
2022/08/29 08:54:24;;;;;;;62.83;50.67;;;23.70;48.20;;;;;;4923505;28;90666;-49
2022/08/29 08:56:56;;;;;;;62.22;50.38;;;23.70;48.40;;;;;;4921195;28;90359;-54
2022/08/29 08:59:29;;;;;;;62.58;50.42;;;23.70;48.30;;;;;;4919573;28;90812;-50
2022/08/29 09:02:08;;;;;;;63.15;50.58;;;23.80;48.10;;;;;;4927527;28;91310;-51
2022/08/29 09:05:24;;;;;;;60.75;50.53;;;23.70;48.20;;;;;;4933680;28;90131;-53
2022/08/29 09:08:08;;;;;;;62.60;50.28;;;23.70;48.10;;;;;;4929869;28;90123;-52
2022/08/29 09:10:42;;;;;;;67.00;50.70;;;23.60;48.20;;;;;;4919173;28;89953;-52
2022/08/29 09:13:13;;;;;;;61.33;50.42;;;23.60;48.00;;;;;;4919035;28;89953;-51
2022/08/29 09:15:43;;;;;;;62.75;50.63;;;23.70;48.60;;;;;;4928331;28;90670;-50
2022/08/29 09:18:26;;;;;;;61.05;50.25;;;23.70;47.90;;;;;;4921549;28;89330;-49
2022/08/29 09:20:53;;;;;;;61.42;50.30;;;23.60;48.00;;;;;;4921819;28;89977;-53
2022/08/29 09:23:29;;;;;;;60.72;50.35;;;23.70;47.60;;;;;;4921179;28;90017;-52
2022/08/29 09:25:55;;;;;;;60.78;50.17;;;23.60;48.40;;;;;;4921219;28;97012;-52
2022/08/29 09:28:21;;;;;;;67.20;52.13;;;23.70;48.30;;;;;;4914559;28;93420;-53
2022/08/29 09:31:18;;;;;;;65.25;51.40;;;23.70;48.60;;;;;;4907768;28;92101;-49
2022/08/29 09:34:06;;;;;;;64.20;51.08;;;23.80;47.40;;;;;;4926317;28;89581;-51
2022/08/29 09:36:43;;;;;;;63.83;50.65;;;23.80;47.50;;;;;;4918742;28;90766;-48
2022/08/29 09:39:12;;;;;;;63.97;50.70;;;23.80;47.00;;;;;;4933047;28;90301;-48
2022/08/29 09:41:38;;;;;;;64.65;50.83;;;23.80;47.20;;;;;;4922003;28;91382;-54
2022/08/29 09:44:05;;;;;;;64.22;51.10;;;23.80;47.40;;;;;;4920671;28;90229;-54
2022/08/29 09:46:31;;;;;;;66.82;51.55;;;23.90;47.30;;;;;;4914386;28;92327;-49
2022/08/29 09:48:56;;;;;;;70.13;51.92;;;23.90;47.60;;;;;;4911225;28;90845;-51
2022/08/29 09:51:37;;;;;;;68.00;51.85;;;24.00;47.30;;;;;;4922247;28;91255;-50
2022/08/29 09:54:12;;;;;;;77.40;54.97;;;23.90;47.00;;;;;;4922748;28;95717;-50
2022/08/29 09:56:51;;;;;;;72.00;52.65;;;23.90;48.10;;;;;;4914988;28;92521;-50
2022/08/29 09:59:30;;;;;;;69.05;52.95;;;23.90;47.20;;;;;;4906497;28;92874;-50
2022/08/29 10:02:20;;;;;;;64.50;51.65;;;23.90;48.10;;;;;;4908052;28;91108;-52
2022/08/29 10:05:00;;;;;;;67.60;51.15;;;23.90;47.20;;;;;;4911535;28;89965;-51
2022/08/29 10:07:32;;;;;;;64.78;50.70;;;23.90;47.20;;;;;;4918131;28;90683;-50
2022/08/29 10:10:13;;;;;;;67.45;50.70;;;23.90;48.40;;;;;;4927496;28;89446;-51
2022/08/29 10:13:00;;;;;;;66.72;51.53;;;24.00;47.30;;;;;;4929427;28;92775;-54
2022/08/29 10:15:46;;;;;;;61.10;50.67;;;23.90;47.00;;;;;;4933366;28;89845;-51
2022/08/29 10:18:26;;;;;;;63.35;50.75;;;23.90;45.90;;;;;;4924594;28;92055;-52
2022/08/29 10:21:14;;;;;;;62.70;50.67;;;23.90;47.50;;;;;;4921211;28;90750;-53
2022/08/29 10:24:13;;;;;;;62.60;50.97;;;24.10;46.60;;;;;;4933917;28;90956;-54
2022/08/29 10:26:55;;;;;;;62.95;50.90;;;24.10;45.90;;;;;;4924740;28;94427;-54
2022/08/29 10:29:38;;;;;;;63.80;50.65;;;24.10;46.40;;;;;;4922142;28;90280;-55
2022/08/29 10:32:09;;;;;;;62.15;50.58;;;24.10;45.70;;;;;;4927867;28;91119;-51
2022/08/29 10:35:11;;;;;;;;;;;24.10;47.10;;;;;;4923854;28;89523;-49
2022/08/29 10:37:45;;;;;;;64.00;50.92;;;24.10;45.80;;;;;;4949664;28;89470;-51
2022/08/29 10:40:30;;;;;;;61.92;50.50;;;24.10;46.10;;;;;;4927116;28;92082;-52
2022/08/29 10:43:34;;;;;;;62.13;50.85;;;24.20;45.40;;;;;;4936301;28;92668;-51
2022/08/29 10:46:18;;;;;;;64.88;51.20;;;24.20;45.70;;;;;;4929346;28;90686;-50
2022/08/29 10:49:18;;;;;;;62.88;51.03;;;24.10;46.50;;;;;;4938347;28;90042;-53
2022/08/29 10:51:52;;;;;;;62.50;50.78;;;24.20;45.80;;;;;;4927811;28;90389;-54
2022/08/29 10:54:34;;;;;;;63.75;51.25;;;24.10;46.20;;;;;;4936688;28;91339;-52
2022/08/29 10:57:02;;;;;;;64.00;51.17;;;24.20;45.60;;;;;;4937330;28;89978;-50
2022/08/29 10:59:55;;;;;;;62.47;50.92;;;24.20;44.60;;;;;;4927620;28;90026;-53
2022/08/29 11:02:44;;;;;;;63.70;51.17;;;24.20;45.40;;;;;;4933863;28;89678;-50
2022/08/29 11:05:19;;;;;;;61.95;50.95;;;24.30;45.40;;;;;;4921434;28;90755;-52
2022/08/29 11:08:02;;;;;;;62.45;51.10;;;24.30;45.00;;;;;;4928271;28;90666;-52
2022/08/29 11:10:39;;;;;;;62.63;51.08;;;24.40;44.60;;;;;;4927429;28;91800;-47
2022/08/29 11:13:14;;;;;;;63.17;51.17;;;24.40;45.00;;;;;;4918116;28;92546;-53
2022/08/29 11:15:58;;;;;;;61.95;51.00;;;24.40;43.50;;;;;;4931334;28;91076;-52
2022/08/29 11:18:48;;;;;;;63.05;51.55;;;24.40;45.40;;;;;;4924950;28;90315;-54
2022/08/29 11:21:24;;;;;;;64.95;51.45;;;24.50;44.30;;;;;;4932238;28;89825;-54
2022/08/29 11:23:50;;;;;;;65.55;51.63;;;24.50;44.00;;;;;;4937232;28;90731;-50
2022/08/29 11:26:21;;;;;;;61.97;51.20;;;24.50;43.90;;;;;;4927934;28;90132;-50
2022/08/29 11:29:12;;;;;;;63.17;51.53;;;24.50;44.40;;;;;;4927443;28;95163;-51
2022/08/29 11:32:25;;;;;;;62.72;51.17;;;24.60;44.30;;;;;;4932907;28;89325;-54
2022/08/29 11:35:05;;;;;;;62.72;51.35;;;24.60;42.10;;;;;;4921844;28;94683;-50
2022/08/29 11:37:40;;;;;;;62.33;51.13;;;24.50;44.00;;;;;;4911838;28;95617;-50
2022/08/29 11:40:09;;;;;;;64.03;51.38;;;24.50;44.30;;;;;;4913949;28;94416;-53
2022/08/29 11:42:39;;;;;;;64.25;51.58;;;24.60;43.40;;;;;;4921835;28;90301;-54
2022/08/29 11:45:09;;;;;;;64.38;51.47;;;24.40;44.10;;;;;;4917264;28;91638;-51
2022/08/29 11:47:44;;;;;;;64.93;51.73;;;24.50;44.50;;;;;;4903560;28;92337;-53
2022/08/29 11:50:19;;;;;;;66.25;51.53;;;24.50;44.20;;;;;;4917119;28;90400;-52
2022/08/29 11:53:11;;;;;;;63.67;51.55;;;24.60;44.70;;;;;;4905124;28;90519;-54
2022/08/29 11:55:39;;;;;;;63.85;51.15;;;24.60;44.90;;;;;;4914237;28;90085;-52
2022/08/29 11:58:07;;;;;;;67.50;51.78;;;24.70;44.90;;;;;;4915091;28;90602;-49
2022/08/29 12:00:33;;;;;;;70.68;51.78;;;24.80;44.80;;;;;;4918451;28;91720;-51
2022/08/29 12:02:59;;;;;;;64.93;51.50;;;24.80;44.60;;;;;;4926395;28;90784;-51
2022/08/29 12:05:27;;;;;;;66.82;52.00;;;24.90;44.70;;;;;;4937186;28;91586;-56
2022/08/29 12:08:00;;;;;;;63.30;51.60;;;25.00;44.60;;;;;;4934325;28;91671;-52
2022/08/29 12:10:33;;;;;;;68.20;52.03;;;25.00;44.60;;;;;;4929597;28;90301;-50
2022/08/29 12:13:01;;;;;;;67.20;52.10;;;25.00;44.30;;;;;;4911139;28;91576;-56
2022/08/29 12:15:26;;;;;;;64.93;51.85;;;25.00;43.30;;;;;;4920957;28;91231;-55
2022/08/29 12:18:12;;;;;;;63.47;51.55;;;25.00;44.80;;;;;;4921117;28;93914;-52
2022/08/29 12:20:40;;;;;;;65.00;51.95;;;25.10;44.30;;;;;;4928094;28;90259;-53
2022/08/29 12:23:11;;;;;;;65.57;51.95;;;25.10;44.00;;;;;;4929448;28;89021;-50
2022/08/29 12:25:42;;;;;;;65.78;51.90;;;25.20;43.40;;;;;;4917858;28;96807;-49
2022/08/29 12:28:18;;;;;;;64.85;52.10;;;25.10;42.80;;;;;;4930636;28;99013;-49
2022/08/29 12:31:09;;;;;;;63.95;51.97;;;25.00;42.70;;;;;;4927655;28;93275;-51
2022/08/29 12:34:11;;;;;;;66.93;51.95;;;25.00;42.10;;;;;;4939786;28;90951;-50
2022/08/29 12:36:55;;;;;;;64.30;51.85;;;25.00;44.30;;;;;;4930553;28;90130;-52
2022/08/29 12:39:59;;;;;;;64.30;51.58;;;25.10;43.50;;;;;;4921746;28;90601;-53
2022/08/29 12:42:43;;;;;;;66.22;52.58;;;25.20;43.70;;;;;;4924091;28;91025;-53
2022/08/29 12:45:16;;;;;;;67.10;51.95;;;25.20;42.50;;;;;;4932140;28;89583;-56
2022/08/29 12:47:53;;;;;;;63.72;52.00;;;25.20;43.70;;;;;;4932701;28;91269;-56